This is the latest recevied weather packets stored in our database for station/object K5DLF-13. If no packets are shown the sender has not sent any weather packets the latest 10 day(s).
| Time | Temp. | Humidity | Pressure | Rain* | Wind** | Luminosity | Snow |
|---|---|---|---|---|---|---|---|
| 1777658965 | 17.78° C | 96% | 1006.6 hPa | 0.25 mm | - | 39 W/m² | - |
| 1777658665 | 17.78° C | 96% | 1006.6 hPa | 2.03 mm | - | 47 W/m² | - |
| 1777658365 | 17.78° C | 96% | 1006.6 hPa | 8.89 mm | - | 72 W/m² | - |
| 1777658065 | 17.78° C | 96% | 1006.7 hPa | 14.99 mm | - | 104 W/m² | - |
| 1777657765 | 17.78° C | 96% | 1006.9 hPa | 22.1 mm | - | 109 W/m² | - |
| 1777657465 | 17.78° C | 96% | 1007.2 hPa | 23.37 mm | - | 58 W/m² | - |
| 1777657165 | 17.78° C | 96% | 1007.2 hPa | 23.37 mm | - | 77 W/m² | - |
| 1777656865 | 17.78° C | 96% | 1007.4 hPa | 23.37 mm | - | 79 W/m² | - |
| 1777656565 | 17.78° C | 96% | 1007.7 hPa | 23.37 mm | - | 47 W/m² | - |
| 1777656265 | 17.78° C | 96% | 1007.8 hPa | 23.11 mm | - | 49 W/m² | - |
| 1777655965 | 17.78° C | 96% | 1007.8 hPa | 23.11 mm | - | 33 W/m² | - |
| 1777655665 | 17.78° C | 95% | 1007.6 hPa | 23.11 mm | - | 54 W/m² | - |
| 1777655365 | 17.78° C | 95% | 1007.5 hPa | 23.11 mm | - | 102 W/m² | - |
| 1777655065 | 17.78° C | 95% | 1007.3 hPa | 21.34 mm | - | 107 W/m² | - |
| 1777654765 | 17.78° C | 95% | 1007.9 hPa | 14.48 mm | - | 72 W/m² | - |
| 1777654465 | 17.78° C | 95% | 1008.5 hPa | 8.38 mm | - | 25 W/m² | - |
| 1777654165 | 17.78° C | 95% | 1009.3 hPa | 1.52 mm | - | 0 W/m² | - |
| 1777653865 | 17.78° C | 95% | 1008.7 hPa | 0.51 mm | - | 0 W/m² | - |
| 1777653565 | 17.78° C | 95% | 1007.1 hPa | 0.51 mm | - | 0 W/m² | - |
| 1777653265 | 17.78° C | 95% | 1007 hPa | 0.76 mm | - | 11 W/m² | - |
| 1777652965 | 18.33° C | 95% | 1007 hPa | 0.76 mm | - | 30 W/m² | - |
| 1777652665 | 18.33° C | 95% | 1007.5 hPa | 0.76 mm | - | 40 W/m² | - |
| 1777652365 | 18.33° C | 95% | 1007.6 hPa | 0.76 mm | - | 16 W/m² | - |
| 1777652065 | 18.33° C | 95% | 1007.8 hPa | 0.76 mm | - | 11 W/m² | - |
| 1777651765 | 18.33° C | 95% | 1008 hPa | 0.76 mm | - | 18 W/m² | - |
* Rain latest hour (hover to see other rain measurements)
** Current wind speed in m/s (hover to see current wind gust speed)